createdAt,value
2018-11-04T00:01:44.137Z,96667.25
2018-11-04T00:04:12.502Z,96669.42
2018-11-04T00:06:40.802Z,96677.37
2018-11-04T00:09:10.157Z,96674.38
2018-11-04T00:11:38.540Z,96664.09
2018-11-04T00:14:06.962Z,96664.60
2018-11-04T00:16:35.433Z,96661.95
2018-11-04T00:19:03.847Z,96658.48
2018-11-04T00:21:32.115Z,96662.77
2018-11-04T00:24:00.588Z,96660.31
2018-11-04T00:26:29.007Z,96656.84
2018-11-04T00:28:57.339Z,96652.36
2018-11-04T00:31:25.873Z,96653.50
2018-11-04T00:33:54.362Z,96650.19
2018-11-04T00:36:22.650Z,96643.41
2018-11-04T00:38:51.090Z,96640.77
2018-11-04T00:41:19.706Z,96637.95
2018-11-04T00:43:48.534Z,96633.00
2018-11-04T00:46:16.974Z,96632.66
2018-11-04T00:48:45.330Z,96632.66
2018-11-04T00:51:13.762Z,96632.66
2018-11-04T00:53:42.162Z,96626.70
2018-11-04T00:56:10.578Z,96624.40
2018-11-04T00:58:38.914Z,96611.81
2018-11-04T01:01:07.438Z,96614.94
2018-11-04T01:03:35.758Z,96613.80
2018-11-04T01:06:04.342Z,96608.66
2018-11-04T01:08:32.850Z,96614.44
2018-11-04T01:11:01.284Z,96612.80
2018-11-04T01:13:29.602Z,96612.95
2018-11-04T01:15:57.870Z,96600.53
2018-11-04T01:18:26.194Z,96604.84
2018-11-04T01:20:54.481Z,96597.25
2018-11-04T01:23:22.814Z,96597.56
2018-11-04T01:25:51.239Z,96597.56
2018-11-04T01:28:19.689Z,96592.77
2018-11-04T01:30:48.152Z,96585.97
2018-11-04T01:33:16.566Z,96587.48
2018-11-04T01:35:44.978Z,96584.48
2018-11-04T01:38:13.246Z,96582.34
2018-11-04T01:40:41.966Z,96577.05
2018-11-04T01:43:11.219Z,96574.56
2018-11-04T01:45:39.482Z,96571.41
2018-11-04T01:48:07.804Z,96569.27
2018-11-04T01:50:36.274Z,96570.08
2018-11-04T01:53:04.998Z,96571.41
2018-11-04T01:55:33.410Z,96573.39
2018-11-04T01:58:01.918Z,96574.23
2018-11-04T02:00:30.200Z,96572.25
2018-11-04T02:02:58.738Z,96572.41
2018-11-04T02:05:27.100Z,96566.95
2018-11-04T02:07:55.498Z,96570.76
2018-11-04T02:10:23.895Z,96564.30
2018-11-04T02:12:52.214Z,96564.14
2018-11-04T02:15:20.606Z,96559.00
2018-11-04T02:17:49.003Z,96565.78
2018-11-04T02:20:17.376Z,96559.17
2018-11-04T02:22:45.739Z,96563.45
2018-11-04T02:25:14.793Z,96555.51
2018-11-04T02:27:43.718Z,96551.88
2018-11-04T02:30:14.524Z,96537.82
2018-11-04T02:32:44.038Z,96534.66
2018-11-04T02:35:13.134Z,96538.64
2018-11-04T02:37:41.823Z,96535.98
2018-11-04T02:40:10.743Z,96537.66
2018-11-04T02:42:39.119Z,96539.80
2018-11-04T02:45:08.346Z,96541.63
2018-11-04T02:47:37.183Z,96537.82
2018-11-04T02:50:06.115Z,96540.63
2018-11-04T02:52:34.854Z,96546.25
2018-11-04T02:55:03.228Z,96536.32
2018-11-04T02:57:31.638Z,96529.05
2018-11-04T03:00:00.041Z,96537.16
2018-11-04T03:02:28.411Z,96537.34
2018-11-04T03:04:56.722Z,96534.86
2018-11-04T03:07:25.044Z,96530.55
2018-11-04T03:09:53.458Z,96531.70
2018-11-04T03:12:21.798Z,96528.05
2018-11-04T03:14:50.178Z,96522.77
2018-11-04T03:17:18.616Z,96524.27
2018-11-04T03:19:47.053Z,96521.27
2018-11-04T03:22:15.434Z,96517.30
2018-11-04T03:24:43.871Z,96520.95
2018-11-04T03:27:12.138Z,96521.46
2018-11-04T03:29:40.558Z,96515.50
2018-11-04T03:32:08.999Z,96509.53
2018-11-04T03:34:37.322Z,96514.64
2018-11-04T03:37:06.334Z,96510.86
2018-11-04T03:39:34.643Z,96513.16
2018-11-04T03:42:02.962Z,96514.00
2018-11-04T03:44:31.353Z,96505.20
2018-11-04T03:46:59.874Z,96502.56
2018-11-04T03:49:28.247Z,96495.79
2018-11-04T03:51:56.573Z,96493.14
2018-11-04T03:54:25.083Z,96489.02
2018-11-04T03:56:53.349Z,96492.64
2018-11-04T03:59:21.722Z,96489.69
2018-11-04T04:01:50.111Z,96483.39
2018-11-04T04:04:18.482Z,96482.23
2018-11-04T04:06:46.823Z,96480.91
2018-11-04T04:09:15.126Z,96476.42
2018-11-04T04:11:43.398Z,96472.30
2018-11-04T04:14:11.778Z,96463.84
2018-11-04T04:16:41.448Z,96467.50
2018-11-04T04:19:09.726Z,96477.59
2018-11-04T04:21:38.147Z,96462.52
2018-11-04T04:24:06.962Z,96464.03
2018-11-04T04:26:35.233Z,96454.91
2018-11-04T04:29:03.666Z,96459.53
2018-11-04T04:31:32.145Z,96462.69
2018-11-04T04:34:00.474Z,96462.34
2018-11-04T04:36:28.890Z,96461.38
2018-11-04T04:38:57.426Z,96465.35
2018-11-04T04:41:25.823Z,96466.17
2018-11-04T04:43:54.162Z,96471.97
2018-11-04T04:46:22.574Z,96471.30
2018-11-04T04:48:51.018Z,96472.64
2018-11-04T04:51:19.482Z,96463.55
2018-11-04T04:53:54.595Z,96454.78
2018-11-04T04:56:22.923Z,96457.74
2018-11-04T04:58:51.300Z,96456.09
2018-11-04T05:01:19.780Z,96460.72
2018-11-04T05:03:48.261Z,96461.88
2018-11-04T05:06:16.634Z,96458.22
2018-11-04T05:08:45.043Z,96464.84
2018-11-04T05:11:13.386Z,96455.07
2018-11-04T05:13:41.785Z,96451.61
2018-11-04T05:16:10.168Z,96463.02
2018-11-04T05:18:38.542Z,96454.59
2018-11-04T05:21:06.894Z,96451.30
2018-11-04T05:23:35.310Z,96444.49
2018-11-04T05:26:03.730Z,96439.86
2018-11-04T05:28:33.065Z,96444.19
2018-11-04T05:31:02.394Z,96441.03
2018-11-04T05:33:30.667Z,96435.39
2018-11-04T05:35:58.942Z,96429.78
2018-11-04T05:38:28.275Z,96431.42
2018-11-04T05:40:56.669Z,96434.57
2018-11-04T05:43:25.241Z,96439.36
2018-11-04T05:45:53.585Z,96437.88
2018-11-04T05:48:21.922Z,96437.37
2018-11-04T05:50:50.425Z,96431.09
2018-11-04T05:53:18.916Z,96429.93
2018-11-04T05:55:47.257Z,96435.88
2018-11-04T05:58:15.695Z,96432.77
2018-11-04T06:00:44.057Z,96436.22
2018-11-04T06:03:12.337Z,96437.05
2018-11-04T06:05:40.613Z,96441.36
2018-11-04T06:08:08.969Z,96444.48
2018-11-04T06:10:37.341Z,96441.02
2018-11-04T06:13:06.129Z,96440.20
2018-11-04T06:15:34.539Z,96444.16
2018-11-04T06:18:02.881Z,96448.64
2018-11-04T06:20:31.273Z,96453.11
2018-11-04T06:22:59.666Z,96445.52
2018-11-04T06:25:28.051Z,96442.87
2018-11-04T06:27:56.685Z,96448.98
2018-11-04T06:30:25.106Z,96442.02
2018-11-04T06:32:53.472Z,96432.27
2018-11-04T06:35:21.837Z,96438.06
2018-11-04T06:37:50.145Z,96433.42
2018-11-04T06:40:18.509Z,96426.97
2018-11-04T06:42:46.893Z,96431.28
2018-11-04T06:45:15.306Z,96432.60
2018-11-04T06:47:43.688Z,96431.63
2018-11-04T06:50:13.282Z,96434.08
2018-11-04T06:52:42.444Z,96440.53
2018-11-04T06:55:11.653Z,96443.02
2018-11-04T06:57:40.565Z,96439.70
2018-11-04T07:00:10.966Z,96439.85
2018-11-04T07:02:39.501Z,96443.50
2018-11-04T07:05:07.921Z,96442.99
2018-11-04T07:07:36.457Z,96441.00
2018-11-04T07:10:05.641Z,96436.86
2018-11-04T07:12:33.973Z,96439.34
2018-11-04T07:15:02.678Z,96446.63
2018-11-04T07:17:31.086Z,96448.61
2018-11-04T07:19:59.385Z,96453.73
2018-11-04T07:22:27.798Z,96456.19
2018-11-04T07:24:56.186Z,96456.53
2018-11-04T07:27:24.729Z,96464.16
2018-11-04T07:29:53.062Z,96457.03
2018-11-04T07:32:21.402Z,96449.90
2018-11-04T07:34:49.773Z,96449.56
2018-11-04T07:37:18.204Z,96444.11
2018-11-04T07:39:46.687Z,96446.39
2018-11-04T07:42:14.969Z,96445.58
2018-11-04T07:44:43.322Z,96446.39
2018-11-04T07:47:11.697Z,96440.59
2018-11-04T07:49:40.092Z,96444.55
2018-11-04T07:52:08.430Z,96441.26
2018-11-04T07:54:37.036Z,96437.94
2018-11-04T07:57:05.656Z,96436.61
2018-11-04T07:59:34.034Z,96442.22
2018-11-04T08:02:02.310Z,96435.94
2018-11-04T08:04:30.640Z,96432.93
2018-11-04T08:06:59.042Z,96430.93
2018-11-04T08:09:27.324Z,96438.86
2018-11-04T08:11:55.654Z,96432.41
2018-11-04T08:14:23.973Z,96436.53
2018-11-04T08:16:52.406Z,96433.71
2018-11-04T08:19:20.706Z,96433.55
2018-11-04T08:21:49.111Z,96428.39
2018-11-04T08:24:17.450Z,96425.20
2018-11-04T08:26:45.842Z,96427.19
2018-11-04T08:29:14.278Z,96431.98
2018-11-04T08:31:42.602Z,96431.95
2018-11-04T08:34:10.987Z,96434.27
2018-11-04T08:36:39.731Z,96431.77
2018-11-04T08:39:08.988Z,96429.77
2018-11-04T08:41:37.342Z,96427.59
2018-11-04T08:44:05.815Z,96411.15
2018-11-04T08:46:35.134Z,96407.78
2018-11-04T08:49:03.541Z,96411.08
2018-11-04T08:51:31.910Z,96408.70
2018-11-04T08:54:00.278Z,96401.36
2018-11-04T08:56:28.638Z,96401.02
2018-11-04T08:58:57.054Z,96400.98
2018-11-04T09:01:25.412Z,96404.63
2018-11-04T09:03:53.729Z,96395.81
2018-11-04T09:06:22.240Z,96404.63
2018-11-04T09:08:50.534Z,96401.28
2018-11-04T09:11:18.933Z,96395.30
2018-11-04T09:13:47.467Z,96396.25
2018-11-04T09:16:15.786Z,96396.89
2018-11-04T09:18:44.101Z,96398.38
2018-11-04T09:21:12.489Z,96391.58
2018-11-04T09:23:40.955Z,96382.46
2018-11-04T09:26:09.529Z,96381.64
2018-11-04T09:28:37.907Z,96387.77
2018-11-04T09:31:07.631Z,96387.77
2018-11-04T09:33:36.301Z,96391.88
2018-11-04T09:36:04.861Z,96389.23
2018-11-04T09:38:33.784Z,96377.11
2018-11-04T09:41:02.336Z,96369.80
2018-11-04T09:43:30.785Z,96372.41
2018-11-04T09:45:59.109Z,96368.25
2018-11-04T09:48:27.417Z,96365.22
2018-11-04T09:50:55.774Z,96360.94
2018-11-04T09:53:24.205Z,96357.46
2018-11-04T09:55:52.589Z,96369.58
2018-11-04T09:58:21.083Z,96362.61
2018-11-04T10:00:49.456Z,96359.14
2018-11-04T10:03:17.837Z,96358.63
2018-11-04T10:05:47.082Z,96356.86
2018-11-04T10:08:15.387Z,96344.41
2018-11-04T10:10:43.735Z,96344.72
2018-11-04T10:13:12.180Z,96328.62
2018-11-04T10:15:40.455Z,96331.73
2018-11-04T10:18:08.901Z,96335.55
2018-11-04T10:20:37.632Z,96335.03
2018-11-04T10:23:06.141Z,96330.88
2018-11-04T10:25:34.665Z,96330.70
2018-11-04T10:28:03.128Z,96331.98
2018-11-04T10:30:31.614Z,96330.78
2018-11-04T10:32:59.898Z,96323.16
2018-11-04T10:35:28.357Z,96317.46
2018-11-04T10:37:56.754Z,96322.89
2018-11-04T10:40:25.134Z,96322.08
2018-11-04T10:42:53.842Z,96313.17
2018-11-04T10:45:22.198Z,96324.27
2018-11-04T10:47:50.586Z,96323.28
2018-11-04T10:50:19.111Z,96313.34
2018-11-04T10:52:47.632Z,96310.52
2018-11-04T10:55:15.997Z,96307.87
2018-11-04T10:57:44.494Z,96306.66
2018-11-04T11:00:18.946Z,96289.71
2018-11-04T11:02:47.510Z,96297.66
2018-11-04T11:05:16.164Z,96297.14
2018-11-04T11:07:44.844Z,96300.61
2018-11-04T11:10:13.170Z,96294.48
2018-11-04T11:12:41.522Z,96287.67
2018-11-04T11:15:11.650Z,96293.80
2018-11-04T11:17:40.380Z,96290.33
2018-11-04T11:20:10.188Z,96279.89
2018-11-04T11:22:38.594Z,96279.07
2018-11-04T11:25:07.866Z,96274.40
2018-11-04T11:27:36.314Z,96269.45
2018-11-04T11:30:04.870Z,96258.95
2018-11-04T11:32:33.186Z,96254.09
2018-11-04T11:35:01.680Z,96256.27
2018-11-04T11:37:30.117Z,96261.19
2018-11-04T11:39:58.438Z,96261.83
2018-11-04T11:42:26.730Z,96259.00
2018-11-04T11:44:55.156Z,96256.98
2018-11-04T11:47:25.839Z,96249.52
2018-11-04T11:49:54.444Z,96247.73
2018-11-04T11:52:22.862Z,96246.08
2018-11-04T11:54:51.311Z,96243.94
2018-11-04T11:57:19.713Z,96238.31
2018-11-04T11:59:49.092Z,96225.34
2018-11-04T12:02:17.569Z,96225.68
2018-11-04T12:04:45.887Z,96225.80
2018-11-04T12:07:14.255Z,96230.78
2018-11-04T12:09:42.648Z,96238.11
2018-11-04T12:12:11.023Z,96230.35
2018-11-04T12:14:40.199Z,96227.48
2018-11-04T12:17:08.687Z,96228.97
2018-11-04T12:19:37.079Z,96226.95
2018-11-04T12:22:05.687Z,96220.77
2018-11-04T12:24:34.046Z,96204.77
2018-11-04T12:27:02.627Z,96202.75
2018-11-04T12:29:30.998Z,96204.70
2018-11-04T12:31:59.400Z,96208.99
2018-11-04T12:34:27.848Z,96208.69
2018-11-04T12:36:56.161Z,96204.89
2018-11-04T12:39:24.517Z,96199.91
2018-11-04T12:41:53.213Z,96193.27
2018-11-04T12:44:21.727Z,96189.98
2018-11-04T12:46:50.062Z,96193.27
2018-11-04T12:49:19.491Z,96190.09
2018-11-04T12:51:48.045Z,96178.45
2018-11-04T12:54:16.453Z,96175.79
2018-11-04T12:56:44.745Z,96179.29
2018-11-04T12:59:13.170Z,96178.45
2018-11-04T13:01:41.663Z,96174.80
2018-11-04T13:04:10.229Z,96171.81
2018-11-04T13:06:38.729Z,96163.66
2018-11-04T13:09:09.105Z,96158.05
2018-11-04T13:11:38.225Z,96159.73
2018-11-04T13:14:07.021Z,96151.77
2018-11-04T13:16:35.469Z,96153.73
2018-11-04T13:19:03.994Z,96161.18
2018-11-04T13:21:32.943Z,96161.18
2018-11-04T13:24:01.443Z,96148.59
2018-11-04T13:26:29.872Z,96149.92
2018-11-04T13:28:58.147Z,96151.25
2018-11-04T13:31:26.459Z,96152.09
2018-11-04T13:33:54.760Z,96140.62
2018-11-04T13:36:23.137Z,96135.53
2018-11-04T13:38:51.574Z,96131.91
2018-11-04T13:41:19.918Z,96133.54
2018-11-04T13:43:48.286Z,96139.00
2018-11-04T13:46:16.733Z,96129.37
2018-11-04T13:48:45.252Z,96130.70
2018-11-04T13:51:13.744Z,96127.34
2018-11-04T13:53:42.121Z,96118.27
2018-11-04T13:56:10.501Z,96120.59
2018-11-04T13:58:39.082Z,96118.27
2018-11-04T14:01:07.614Z,96108.13
2018-11-04T14:03:36.029Z,96109.45
2018-11-04T14:06:04.703Z,96106.62
2018-11-04T14:08:33.209Z,96112.44
2018-11-04T14:11:01.628Z,96104.33
2018-11-04T14:13:29.944Z,96102.37
2018-11-04T14:15:58.540Z,96109.41
2018-11-04T14:18:26.854Z,96106.75
2018-11-04T14:20:55.175Z,96107.11
2018-11-04T14:23:23.646Z,96101.50
2018-11-04T14:25:51.990Z,96091.77
2018-11-04T14:28:20.574Z,96092.13
2018-11-04T14:30:49.060Z,96090.69
2018-11-04T14:33:17.418Z,96093.22
2018-11-04T14:35:45.885Z,96096.75
2018-11-04T14:38:14.704Z,96090.12
2018-11-04T14:40:43.039Z,96088.79
2018-11-04T14:43:11.482Z,96084.02
2018-11-04T14:45:40.124Z,96087.52
2018-11-04T14:48:08.545Z,96083.84
2018-11-04T14:50:36.976Z,96084.54
2018-11-04T14:53:06.089Z,96081.07
2018-11-04T14:55:34.473Z,96075.43
2018-11-04T14:58:03.044Z,96066.35
2018-11-04T15:00:35.326Z,96067.23
2018-11-04T15:03:04.568Z,96069.25
2018-11-04T15:05:32.887Z,96075.25
2018-11-04T15:08:01.555Z,96073.96
2018-11-04T15:10:29.917Z,96075.05
2018-11-04T15:12:58.365Z,96076.89
2018-11-04T15:15:26.715Z,96074.86
2018-11-04T15:17:55.056Z,96074.35
2018-11-04T15:20:23.453Z,96073.03
2018-11-04T15:22:52.563Z,96066.06
2018-11-04T15:25:22.023Z,96071.76
2018-11-04T15:27:50.693Z,96059.37
2018-11-04T15:30:19.300Z,96067.20
2018-11-04T15:32:47.627Z,96063.59
2018-11-04T15:35:16.867Z,96067.23
2018-11-04T15:37:45.671Z,96059.97
2018-11-04T15:40:15.103Z,96051.71
2018-11-04T15:42:43.454Z,96046.58
2018-11-04T15:45:13.833Z,96050.74
2018-11-04T15:47:42.391Z,96051.13
2018-11-04T15:50:12.858Z,96043.03
2018-11-04T15:52:41.214Z,96043.23
2018-11-04T15:55:09.598Z,96037.27
2018-11-04T15:57:37.882Z,96041.52
2018-11-04T16:00:08.842Z,96052.15
2018-11-04T16:02:37.226Z,96044.58
2018-11-04T16:05:06.486Z,96041.12
2018-11-04T16:07:34.964Z,96043.95
2018-11-04T16:10:03.430Z,96051.91
2018-11-04T16:12:31.791Z,96050.48
2018-11-04T16:15:00.297Z,96052.49
2018-11-04T16:17:29.407Z,96045.56
2018-11-04T16:19:57.808Z,96046.55
2018-11-04T16:22:26.139Z,96052.55
2018-11-04T16:24:54.494Z,96053.06
2018-11-04T16:27:22.980Z,96055.20
2018-11-04T16:29:51.550Z,96045.62
2018-11-04T16:32:19.935Z,96046.31
2018-11-04T16:34:48.322Z,96045.46
2018-11-04T16:37:16.822Z,96054.44
2018-11-04T16:39:45.290Z,96056.75
2018-11-04T16:42:13.658Z,96056.93
2018-11-04T16:44:42.174Z,96036.75
2018-11-04T16:47:10.486Z,96028.30
2018-11-04T16:49:38.798Z,96029.45
2018-11-04T16:52:07.130Z,96040.05
2018-11-04T16:54:35.406Z,96035.63
2018-11-04T16:57:05.235Z,96023.39
2018-11-04T16:59:33.591Z,96022.24
2018-11-04T17:02:01.869Z,96029.73
2018-11-04T17:04:31.125Z,96034.62
2018-11-04T17:06:59.515Z,96031.74
2018-11-04T17:09:27.859Z,96025.22
2018-11-04T17:11:57.335Z,96033.34
2018-11-04T17:14:25.733Z,96025.73
2018-11-04T17:16:54.126Z,96023.72
2018-11-04T17:19:22.496Z,96019.73
2018-11-04T17:21:50.924Z,96014.62
2018-11-04T17:24:19.284Z,96023.43
2018-11-04T17:26:47.654Z,96024.34
2018-11-04T17:29:16.031Z,96015.80
2018-11-04T17:31:44.405Z,96016.02
2018-11-04T17:34:12.779Z,96014.23
2018-11-04T17:36:41.339Z,96018.58
2018-11-04T17:39:11.007Z,96019.91
2018-11-04T17:41:39.513Z,96010.94
2018-11-04T17:44:08.650Z,96018.38
2018-11-04T17:46:37.482Z,96017.26
2018-11-04T17:49:06.230Z,96009.19
2018-11-04T17:51:34.618Z,96015.98
2018-11-04T17:54:03.002Z,96017.65
2018-11-04T17:56:31.254Z,96018.16
2018-11-04T17:58:59.630Z,96008.25
2018-11-04T18:01:28.022Z,96017.86
2018-11-04T18:03:56.398Z,96012.10
2018-11-04T18:06:24.742Z,96012.61
2018-11-04T18:08:53.283Z,96014.70
2018-11-04T18:11:21.854Z,96023.67
2018-11-04T18:13:50.466Z,96017.73
2018-11-04T18:16:18.886Z,96016.58
2018-11-04T18:18:47.288Z,96017.78
2018-11-04T18:21:15.697Z,96021.16
2018-11-04T18:23:44.108Z,96016.91
2018-11-04T18:26:12.958Z,96026.52
2018-11-04T18:28:41.242Z,96029.81
2018-11-04T18:31:09.596Z,96024.52
2018-11-04T18:33:37.955Z,96019.39
2018-11-04T18:36:06.569Z,96018.24
2018-11-04T18:38:34.999Z,96010.30
2018-11-04T18:41:03.433Z,96009.18
2018-11-04T18:43:31.834Z,96014.95
2018-11-04T18:46:00.114Z,96017.80
2018-11-04T18:48:28.439Z,96016.18
2018-11-04T18:50:56.774Z,96014.08
2018-11-04T18:53:25.405Z,96014.08
2018-11-04T18:55:53.766Z,96015.27
2018-11-04T18:58:22.272Z,96014.97
2018-11-04T19:00:50.569Z,96003.12
2018-11-04T19:03:18.903Z,96006.99
2018-11-04T19:05:47.313Z,96001.53
2018-11-04T19:08:15.689Z,95997.43
2018-11-04T19:10:44.255Z,95993.16
2018-11-04T19:13:12.835Z,96003.06
2018-11-04T19:15:41.207Z,96001.36
2018-11-04T19:18:09.631Z,96002.86
2018-11-04T19:20:37.979Z,96003.30
2018-11-04T19:23:06.325Z,96006.28
2018-11-04T19:25:41.365Z,96011.91
2018-11-04T19:28:09.757Z,96005.64
2018-11-04T19:30:38.208Z,96004.69
2018-11-04T19:33:06.515Z,96003.36
2018-11-04T19:35:34.887Z,96006.83
2018-11-04T19:38:03.276Z,96004.66
2018-11-04T19:40:31.684Z,96014.92
2018-11-04T19:43:00.147Z,96011.94
2018-11-04T19:45:28.570Z,96019.41
2018-11-04T19:47:56.853Z,96021.20
2018-11-04T19:50:25.170Z,96022.35
2018-11-04T19:52:53.469Z,96027.47
2018-11-04T19:55:21.802Z,96025.13
2018-11-04T19:57:50.194Z,96019.67
2018-11-04T20:00:18.536Z,96015.20
2018-11-04T20:02:46.892Z,96013.57
2018-11-04T20:05:15.317Z,96011.77
2018-11-04T20:07:43.684Z,96026.48
2018-11-04T20:10:14.702Z,96022.86
2018-11-04T20:12:48.439Z,96028.15
2018-11-04T20:15:16.896Z,96029.78
2018-11-04T20:17:45.953Z,96024.45
2018-11-04T20:20:16.392Z,96025.27
2018-11-04T20:22:44.625Z,96023.27
2018-11-04T20:25:18.030Z,96024.73
2018-11-04T20:27:46.389Z,96022.25
2018-11-04T20:30:15.129Z,96009.67
2018-11-04T20:32:48.717Z,96006.17
2018-11-04T20:35:17.317Z,96006.01
2018-11-04T20:37:45.763Z,96014.42
2018-11-04T20:40:19.334Z,96013.09
2018-11-04T20:42:47.664Z,96013.41
2018-11-04T20:45:16.006Z,96006.31
2018-11-04T20:47:49.738Z,96001.16
2018-11-04T20:50:23.414Z,96000.64
2018-11-04T20:52:51.820Z,95995.55
2018-11-04T20:55:20.174Z,95986.77
2018-11-04T20:57:52.827Z,95986.77
2018-11-04T21:00:21.334Z,95998.50
2018-11-04T21:02:49.626Z,95991.38
2018-11-04T21:05:18.001Z,95991.89
2018-11-04T21:07:46.313Z,95987.92
2018-11-04T21:10:14.640Z,95983.95
2018-11-04T21:12:43.030Z,95979.17
2018-11-04T21:15:11.494Z,95975.38
2018-11-04T21:17:39.902Z,95979.68
2018-11-04T21:20:08.262Z,95977.84
2018-11-04T21:22:36.650Z,95963.60
2018-11-04T21:25:05.775Z,95972.38
2018-11-04T21:27:34.224Z,95959.46
2018-11-04T21:30:03.647Z,95955.83
2018-11-04T21:32:32.039Z,95962.92
2018-11-04T21:35:00.666Z,95975.67
2018-11-04T21:37:29.074Z,95975.16
2018-11-04T21:39:57.374Z,95970.38
2018-11-04T21:42:25.928Z,95958.14
2018-11-04T21:44:54.118Z,95961.29
2018-11-04T21:47:22.417Z,95962.44
2018-11-04T21:49:51.118Z,95967.73
2018-11-04T21:52:19.510Z,95966.20
2018-11-04T21:54:47.842Z,95962.75
2018-11-04T21:57:16.228Z,95961.42
2018-11-04T21:59:44.590Z,95963.94
2018-11-04T22:02:12.997Z,95946.61
2018-11-04T22:04:41.375Z,95943.12
2018-11-04T22:07:09.742Z,95943.63
2018-11-04T22:09:38.099Z,95941.31
2018-11-04T22:12:06.446Z,95943.12
2018-11-04T22:14:34.747Z,95938.20
2018-11-04T22:17:03.250Z,95934.75
2018-11-04T22:19:31.619Z,95936.45
2018-11-04T22:21:59.897Z,95943.41
2018-11-04T22:24:28.195Z,95943.78
2018-11-04T22:26:56.518Z,95948.26
2018-11-04T22:29:24.994Z,95946.80
2018-11-04T22:31:53.288Z,95950.09
2018-11-04T22:34:21.619Z,95947.11
2018-11-04T22:36:50.955Z,95944.59
2018-11-04T22:39:19.249Z,95940.93
2018-11-04T22:41:47.673Z,95938.33
2018-11-04T22:44:15.966Z,95931.61
2018-11-04T22:46:44.373Z,95930.33
2018-11-04T22:49:12.798Z,95931.05
2018-11-04T22:51:41.062Z,95922.60
2018-11-04T22:54:09.358Z,95922.60
2018-11-04T22:56:37.834Z,95927.73
2018-11-04T22:59:06.298Z,95933.52
2018-11-04T23:01:34.667Z,95932.03
2018-11-04T23:04:03.039Z,95926.06
2018-11-04T23:06:31.270Z,95922.73
2018-11-04T23:08:59.574Z,95929.34
2018-11-04T23:11:27.897Z,95931.05
2018-11-04T23:13:56.335Z,95922.13
2018-11-04T23:16:24.629Z,95918.98
2018-11-04T23:18:52.979Z,95919.80
2018-11-04T23:21:21.247Z,95917.15
2018-11-04T23:23:49.547Z,95911.69
2018-11-04T23:26:17.940Z,95909.21
2018-11-04T23:28:46.388Z,95902.94
2018-11-04T23:31:14.655Z,95902.61
2018-11-04T23:33:42.963Z,95895.52
2018-11-04T23:36:11.237Z,95886.06
2018-11-04T23:38:39.529Z,95882.82
2018-11-04T23:41:07.858Z,95884.34
2018-11-04T23:43:36.141Z,95879.06
2018-11-04T23:46:04.445Z,95873.60
2018-11-04T23:48:32.817Z,95875.56
2018-11-04T23:51:01.082Z,95874.62
2018-11-04T23:53:29.394Z,95875.30
2018-11-04T23:55:57.747Z,95878.35
2018-11-04T23:58:26.026Z,95879.06
